Aeroporto :
LOGIN :

Iscrizione | Disclaimer

   EN    FR    IT 

 










Sommario :    VFR   VFR Marginale   IFR   IFR Intensivo   IFR Molto Intensivo
Visibilità : 
Base nubi : 
>= 8 km
>= 3000ft
5 / 8 km
1000 / 3000 ft
1500m / 5 km
500 / 1000 ft
800 / 1500m
200 / 500 ft
< 800m
< 200 ft
Simboli :   Temporali  Nebbia  Neve Forte  Precipitazioni Forti  Vento > 20 kt
SIGMETs :   Varie  Temporali  Ghiacco  Turbolenza  Onda orograficha  Ceneri Vulcaniche






- Altitudine del aeroporto : 10 ft
- Codice IATA : AAL


EKYT - Aalborg

ULTIMO METAR :
  • 221550Z AUTO 21003KT 9999 NCD 17/13 Q1006

METARs OBSOLETI :
  • 221520Z AUTO 22003KT 9999 NCD 17/12 Q1007
  • 221450Z AUTO 24005KT 9999 SCT028/// 17/12 Q1007
  • 221420Z AUTO 25007KT 9999 BKN028/// 17/12 Q1008
  • 221350Z AUTO 26008KT 9999 BKN026/// 17/12 Q1008
  • 221320Z AUTO 25008KT 9999 FEW020/// SCT028/// 16/11 Q1008

TAF TAF EKYT
Valido dal 22 a 15 ore il 23 a 15 ore UTC


221424Z 2215/2315 21008KT 9999 SCT025
TEMPO 2223/2307 2500 BR BKN003



MetMap, La meteo Aeronautica in un colpo d'occhio ! - Copyright ORBIFLY Dicembre 2007 - Disclaimer

ORBIFLY MET'MAP TEAM :

Programmazione e sviluppo : Alexandra Zaïnal
Concezione : Baudouin d'Aumeries
Aiuto per la programmazione : Marc-Olivier Méhu
Supporto tecnico e logistico : Manuel Goepfert
Aiuto per la traduzione : Arnaldo La Scala

Contatto : metmap@orbifly.com




FONTI E CREDITI :

   NOAA